createdAt,value
2023-03-21T00:00:40.222Z,100793.13
2023-03-21T00:03:43.337Z,100788.81
2023-03-21T00:06:44.905Z,100778.25
2023-03-21T00:09:46.308Z,100780.97
2023-03-21T00:12:50.276Z,100768.00
2023-03-21T00:16:05.615Z,100777.63
2023-03-21T00:19:14.315Z,100774.16
2023-03-21T00:22:15.866Z,100772.25
2023-03-21T00:25:17.256Z,100766.09
2023-03-21T00:28:18.643Z,100765.34
2023-03-21T00:31:20.207Z,100766.94
2023-03-21T00:34:32.051Z,100770.41
2023-03-21T00:37:44.688Z,100753.66
2023-03-21T00:40:49.148Z,100751.84
2023-03-21T00:43:51.898Z,100750.91
2023-03-21T00:47:06.159Z,100753.44
2023-03-21T00:50:09.709Z,100742.06
2023-03-21T00:53:11.201Z,100739.44
2023-03-21T00:56:12.685Z,100739.59
2023-03-21T00:59:14.095Z,100737.84
2023-03-21T01:02:23.041Z,100740.44
2023-03-21T01:05:45.313Z,100730.75
2023-03-21T01:08:53.162Z,100730.78
2023-03-21T01:11:54.994Z,100730.09
2023-03-21T01:14:57.593Z,100725.69
2023-03-21T01:17:59.081Z,100718.81
2023-03-21T01:21:01.361Z,100722.44
2023-03-21T01:24:03.074Z,100724.03
2023-03-21T01:27:04.596Z,100724.91
2023-03-21T01:30:17.421Z,100733.84
2023-03-21T01:33:22.465Z,100719.72
2023-03-21T01:36:26.509Z,100713.63
2023-03-21T01:39:34.798Z,100719.13
2023-03-21T01:42:36.266Z,100713.06
2023-03-21T01:46:21.239Z,100705.88
2023-03-21T01:49:47.726Z,100704.94
2023-03-21T01:52:55.005Z,100695.38
2023-03-21T01:56:12.272Z,100692.91
2023-03-21T01:59:31.710Z,100687.59
2023-03-21T02:03:11.323Z,100687.50
2023-03-21T02:06:41.302Z,100692.88
2023-03-21T02:10:05.142Z,100687.59
2023-03-21T02:13:09.736Z,100684.25
2023-03-21T02:16:13.817Z,100680.69
2023-03-21T02:19:44.530Z,100683.41
2023-03-21T02:23:10.253Z,100675.47
2023-03-21T02:26:41.950Z,100678.97
2023-03-21T02:30:37.531Z,100675.50
2023-03-21T02:33:55.004Z,100660.59
2023-03-21T02:37:02.373Z,100664.84
2023-03-21T02:40:13.450Z,100666.69
2023-03-21T02:43:27.966Z,100661.28
2023-03-21T02:46:45.578Z,100668.69
2023-03-21T02:50:03.912Z,100662.81
2023-03-21T02:53:10.580Z,100666.28
2023-03-21T02:56:12.522Z,100672.53
2023-03-21T02:59:22.509Z,100677.66
2023-03-21T03:02:28.363Z,100666.22
2023-03-21T03:05:34.182Z,100672.38
2023-03-21T03:09:03.055Z,100673.44
2023-03-21T03:12:35.441Z,100650.84
2023-03-21T03:15:51.453Z,100653.47
2023-03-21T03:18:59.945Z,100648.38
2023-03-21T03:22:10.241Z,100647.56
2023-03-21T03:25:29.568Z,100647.56
2023-03-21T03:28:42.453Z,100648.38
2023-03-21T03:32:08.515Z,100652.72
2023-03-21T03:35:17.494Z,100654.34
2023-03-21T03:38:22.585Z,100651.84
2023-03-21T03:41:31.829Z,100654.34
2023-03-21T03:44:36.910Z,100648.28
2023-03-21T03:48:14.821Z,100660.66
2023-03-21T03:51:43.219Z,100652.06
2023-03-21T03:55:05.952Z,100651.28
2023-03-21T03:58:21.587Z,100650.41
2023-03-21T04:01:24.520Z,100653.97
2023-03-21T04:04:29.049Z,100652.16
2023-03-21T04:07:32.573Z,100652.91
2023-03-21T04:10:36.385Z,100646.69
2023-03-21T04:13:37.996Z,100644.91
2023-03-21T04:16:44.277Z,100638.88
2023-03-21T04:19:46.268Z,100637.16
2023-03-21T04:22:48.595Z,100642.53
2023-03-21T04:25:56.982Z,100646.09
2023-03-21T04:29:08.989Z,100639.88
2023-03-21T04:32:29.045Z,100645.22
2023-03-21T04:35:39.697Z,100637.28
2023-03-21T04:38:43.102Z,100645.31
2023-03-21T04:41:46.599Z,100640.94
2023-03-21T04:44:49.070Z,100640.22
2023-03-21T04:47:50.559Z,100641.97
2023-03-21T04:50:52.342Z,100634.94
2023-03-21T04:53:57.415Z,100637.53
2023-03-21T04:56:59.874Z,100637.53
2023-03-21T05:00:02.828Z,100639.28
2023-03-21T05:03:09.033Z,100641.84
2023-03-21T05:06:10.676Z,100640.16
2023-03-21T05:09:13.522Z,100639.22
2023-03-21T05:12:15.638Z,100636.84
2023-03-21T05:15:17.135Z,100636.69
2023-03-21T05:18:24.660Z,100633.16
2023-03-21T05:21:42.182Z,100628.81
2023-03-21T05:24:56.652Z,100635.06
2023-03-21T05:28:21.031Z,100624.69
2023-03-21T05:31:23.321Z,100629.22
2023-03-21T05:34:29.718Z,100629.84
2023-03-21T05:37:31.848Z,100629.84
2023-03-21T05:40:33.380Z,100632.50
2023-03-21T05:43:35.947Z,100634.50
2023-03-21T05:46:37.808Z,100637.91
2023-03-21T05:49:40.508Z,100640.47
2023-03-21T05:52:42.845Z,100638.75
2023-03-21T05:55:48.152Z,100636.91
2023-03-21T05:59:04.046Z,100632.56
2023-03-21T06:02:09.689Z,100640.38
2023-03-21T06:05:11.218Z,100636.88
2023-03-21T06:08:13.330Z,100638.41
2023-03-21T06:11:25.812Z,100637.38
2023-03-21T06:14:36.027Z,100632.75
2023-03-21T06:18:00.331Z,100628.19
2023-03-21T06:21:01.974Z,100627.31
2023-03-21T06:24:03.696Z,100629.13
2023-03-21T06:27:06.073Z,100627.22
2023-03-21T06:30:20.945Z,100639.22
2023-03-21T06:33:36.301Z,100639.31
2023-03-21T06:36:38.059Z,100634.75
2023-03-21T06:39:39.526Z,100635.50
2023-03-21T06:42:40.987Z,100646.13
2023-03-21T06:45:46.020Z,100642.25
2023-03-21T06:48:47.497Z,100641.31
2023-03-21T06:51:49.646Z,100655.34
2023-03-21T06:54:54.509Z,100659.50
2023-03-21T06:57:57.467Z,100657.09
2023-03-21T07:01:03.080Z,100657.84
2023-03-21T07:04:07.447Z,100659.75
2023-03-21T07:07:09.450Z,100656.25
2023-03-21T07:10:11.634Z,100648.41
2023-03-21T07:13:21.348Z,100656.38
2023-03-21T07:16:29.429Z,100650.91
2023-03-21T07:19:31.160Z,100649.72
2023-03-21T07:22:34.724Z,100642.66
2023-03-21T07:25:36.554Z,100642.56
2023-03-21T07:28:38.268Z,100632.97
2023-03-21T07:31:39.967Z,100629.16
2023-03-21T07:34:41.984Z,100627.88
2023-03-21T07:37:43.705Z,100628.91
2023-03-21T07:40:49.746Z,100629.41
2023-03-21T07:43:51.412Z,100624.44
2023-03-21T07:46:53.400Z,100622.50
2023-03-21T07:49:54.869Z,100619.69
2023-03-21T07:52:56.399Z,100624.59
2023-03-21T07:55:57.824Z,100628.75
2023-03-21T07:58:59.460Z,100633.41
2023-03-21T08:02:00.954Z,100640.38
2023-03-21T08:05:03.914Z,100634.44
2023-03-21T08:08:05.999Z,100632.38
2023-03-21T08:11:07.805Z,100638.47
2023-03-21T08:14:09.219Z,100632.16
2023-03-21T08:17:10.718Z,100624.97
2023-03-21T08:20:22.146Z,100628.28
2023-03-21T08:23:24.675Z,100629.25
2023-03-21T08:26:26.358Z,100629.88
2023-03-21T08:29:28.113Z,100629.41
2023-03-21T08:32:30.220Z,100632.31
2023-03-21T08:35:31.667Z,100628.47
2023-03-21T08:38:34.545Z,100635.84
2023-03-21T08:41:37.457Z,100629.34
2023-03-21T08:44:39.658Z,100628.78
2023-03-21T08:47:41.100Z,100628.28
2023-03-21T08:50:43.270Z,100627.25
2023-03-21T08:53:44.652Z,100624.13
2023-03-21T08:56:46.145Z,100634.34
2023-03-21T08:59:47.525Z,100639.38
2023-03-21T09:02:51.373Z,100627.16
2023-03-21T09:05:54.197Z,100628.44
2023-03-21T09:08:56.809Z,100626.66
2023-03-21T09:11:58.459Z,100623.81
2023-03-21T09:15:02.388Z,100626.03
2023-03-21T09:18:12.975Z,100627.25
2023-03-21T09:21:18.357Z,100626.34
2023-03-21T09:24:20.561Z,100631.56
2023-03-21T09:27:23.134Z,100629.25
2023-03-21T09:30:26.434Z,100629.78
2023-03-21T09:33:29.436Z,100629.47
2023-03-21T09:36:34.880Z,100624.91
2023-03-21T09:39:37.155Z,100625.53
2023-03-21T09:43:02.822Z,100625.19
2023-03-21T09:46:19.337Z,100635.75
2023-03-21T09:49:40.439Z,100626.09
2023-03-21T09:52:51.833Z,100629.63
2023-03-21T09:55:54.317Z,100632.81
2023-03-21T09:58:59.266Z,100634.94
2023-03-21T10:02:01.729Z,100635.19
2023-03-21T10:05:12.016Z,100624.50
2023-03-21T10:08:36.449Z,100624.88
2023-03-21T10:11:48.613Z,100633.25
2023-03-21T10:14:55.953Z,100624.97
2023-03-21T10:18:14.060Z,100632.38
2023-03-21T10:21:47.345Z,100627.69
2023-03-21T10:24:44.653Z,100619.31
2023-03-21T10:27:47.587Z,100615.72
2023-03-21T10:30:52.941Z,100606.16
2023-03-21T10:33:57.708Z,100602.06
2023-03-21T10:37:02.322Z,100598.19
2023-03-21T10:40:06.165Z,100599.56
2023-03-21T10:43:40.722Z,100600.41
2023-03-21T10:46:54.155Z,100590.66
2023-03-21T10:50:07.436Z,100592.19
2023-03-21T10:53:20.698Z,100592.44
2023-03-21T10:56:28.994Z,100586.66
2023-03-21T10:59:39.084Z,100584.28
2023-03-21T11:02:41.295Z,100587.44
2023-03-21T11:05:43.384Z,100585.28
2023-03-21T11:08:53.961Z,100579.47
2023-03-21T11:12:03.569Z,100574.16
2023-03-21T11:15:33.084Z,100573.72
2023-03-21T11:18:43.478Z,100566.97
2023-03-21T11:21:45.383Z,100561.13
2023-03-21T11:24:51.486Z,100564.63
2023-03-21T11:27:54.854Z,100561.53
2023-03-21T11:30:58.304Z,100563.09
2023-03-21T11:34:07.095Z,100560.69
2023-03-21T11:37:20.733Z,100551.84
2023-03-21T11:40:33.327Z,100553.22
2023-03-21T11:43:39.605Z,100549.50
2023-03-21T11:46:41.310Z,100545.75
2023-03-21T11:49:42.757Z,100533.63
2023-03-21T11:53:20.311Z,100539.44
2023-03-21T11:56:42.456Z,100539.16
2023-03-21T12:00:14.417Z,100529.63
2023-03-21T12:03:47.231Z,100531.22
2023-03-21T12:06:56.098Z,100520.06
2023-03-21T12:10:20.001Z,100512.78
2023-03-21T12:13:36.591Z,100508.28
2023-03-21T12:16:46.950Z,100499.06
2023-03-21T12:20:09.903Z,100500.94
2023-03-21T12:23:55.220Z,100495.84
2023-03-21T12:27:04.521Z,100499.38
2023-03-21T12:30:18.572Z,100501.88
2023-03-21T12:33:41.893Z,100489.75
2023-03-21T12:37:02.128Z,100480.06
2023-03-21T12:40:28.744Z,100479.66
2023-03-21T12:43:54.012Z,100475.69
2023-03-21T12:47:07.606Z,100466.97
2023-03-21T12:50:18.346Z,100460.06
2023-03-21T12:53:36.020Z,100461.00
2023-03-21T12:56:46.974Z,100450.38
2023-03-21T13:00:13.733Z,100454.75
2023-03-21T13:03:38.966Z,100442.34
2023-03-21T13:06:48.178Z,100436.03
2023-03-21T13:09:51.163Z,100433.97
2023-03-21T13:13:22.718Z,100428.25
2023-03-21T13:17:00.547Z,100426.03
2023-03-21T13:20:20.136Z,100429.69
2023-03-21T13:23:23.536Z,100432.53
2023-03-21T13:26:42.078Z,100422.19
2023-03-21T13:30:02.435Z,100414.03
2023-03-21T13:33:13.507Z,100411.25
2023-03-21T13:36:28.416Z,100417.97
2023-03-21T13:39:30.981Z,100413.56
2023-03-21T13:42:33.630Z,100419.16
2023-03-21T13:45:53.865Z,100408.72
2023-03-21T13:48:59.516Z,100408.78
2023-03-21T13:52:23.061Z,100412.81
2023-03-21T13:55:28.442Z,100406.72
2023-03-21T13:58:37.913Z,100399.78
2023-03-21T14:01:58.162Z,100404.91
2023-03-21T14:05:17.554Z,100394.56
2023-03-21T14:08:28.048Z,100395.50
2023-03-21T14:11:38.383Z,100384.94
2023-03-21T14:14:51.160Z,100380.66
2023-03-21T14:18:16.050Z,100373.09
2023-03-21T14:21:30.417Z,100378.34
2023-03-21T14:24:32.425Z,100363.59
2023-03-21T14:27:37.654Z,100362.31
2023-03-21T14:30:41.274Z,100354.84
2023-03-21T14:33:49.463Z,100352.78
2023-03-21T14:36:58.110Z,100357.34
2023-03-21T14:40:11.368Z,100350.91
2023-03-21T14:43:12.909Z,100349.38
2023-03-21T14:46:14.393Z,100343.84
2023-03-21T14:49:26.760Z,100351.94
2023-03-21T14:52:34.057Z,100356.03
2023-03-21T14:55:42.337Z,100358.81
2023-03-21T14:58:46.992Z,100365.31
2023-03-21T15:01:51.060Z,100373.84
2023-03-21T15:04:57.027Z,100358.41
2023-03-21T15:08:01.231Z,100372.56
2023-03-21T15:11:07.887Z,100359.81
2023-03-21T15:14:27.289Z,100359.03
2023-03-21T15:17:29.294Z,100358.16
2023-03-21T15:20:36.061Z,100353.56
2023-03-21T15:23:44.483Z,100340.56
2023-03-21T15:26:48.698Z,100331.03
2023-03-21T15:29:54.107Z,100331.81
2023-03-21T15:32:56.837Z,100318.88
2023-03-21T15:36:00.210Z,100304.72
2023-03-21T15:39:05.556Z,100300.19
2023-03-21T15:42:24.656Z,100282.31
2023-03-21T15:45:27.744Z,100273.63
2023-03-21T15:48:34.740Z,100298.88
2023-03-21T15:51:36.430Z,100316.91
2023-03-21T15:54:47.974Z,100305.13
2023-03-21T15:57:50.048Z,100305.44
2023-03-21T16:00:55.454Z,100313.97
2023-03-21T16:04:02.421Z,100314.16
2023-03-21T16:07:16.940Z,100309.66
2023-03-21T16:10:31.975Z,100279.94
2023-03-21T16:13:33.467Z,100272.38
2023-03-21T16:16:35.710Z,100287.69
2023-03-21T16:19:37.119Z,100296.03
2023-03-21T16:22:38.494Z,100285.34
2023-03-21T16:25:41.015Z,100299.22
2023-03-21T16:28:43.577Z,100299.22
2023-03-21T16:31:47.599Z,100287.94
2023-03-21T16:34:49.149Z,100282.38
2023-03-21T16:37:50.762Z,100263.78
2023-03-21T16:40:52.210Z,100271.28
2023-03-21T16:43:53.919Z,100286.81
2023-03-21T16:46:55.403Z,100302.19
2023-03-21T16:49:57.107Z,100295.03
2023-03-21T16:52:59.047Z,100288.00
2023-03-21T16:56:02.847Z,100277.63
2023-03-21T16:59:10.498Z,100314.66
2023-03-21T17:02:14.771Z,100332.25
2023-03-21T17:05:16.265Z,100333.66
2023-03-21T17:08:19.572Z,100341.09
2023-03-21T17:11:23.150Z,100343.84
2023-03-21T17:14:24.527Z,100343.13
2023-03-21T17:17:25.964Z,100341.28
2023-03-21T17:20:32.802Z,100332.22
2023-03-21T17:23:34.280Z,100329.13
2023-03-21T17:26:36.301Z,100317.13
2023-03-21T17:29:37.772Z,100312.53
2023-03-21T17:32:39.192Z,100316.84
2023-03-21T17:35:40.681Z,100317.81
2023-03-21T17:38:42.836Z,100326.66
2023-03-21T17:41:44.248Z,100323.94
2023-03-21T17:44:46.479Z,100315.09
2023-03-21T17:47:48.371Z,100315.09
2023-03-21T17:50:49.825Z,100324.16
2023-03-21T17:53:51.621Z,100328.75
2023-03-21T17:56:54.615Z,100318.31
2023-03-21T17:59:56.786Z,100317.44
2023-03-21T18:02:58.491Z,100318.44
2023-03-21T18:06:00.119Z,100316.66
2023-03-21T18:09:06.799Z,100317.75
2023-03-21T18:12:08.435Z,100318.59
2023-03-21T18:15:14.367Z,100322.06
2023-03-21T18:18:17.000Z,100323.84
2023-03-21T18:21:20.343Z,100327.53
2023-03-21T18:24:21.909Z,100323.03
2023-03-21T18:27:23.347Z,100327.47
2023-03-21T18:30:47.406Z,100331.22
2023-03-21T18:33:48.378Z,100328.66
2023-03-21T18:36:49.838Z,100334.13
2023-03-21T18:39:51.309Z,100335.97
2023-03-21T18:43:45.448Z,100334.41
2023-03-21T18:46:15.635Z,100342.78
2023-03-21T18:52:38.878Z,100339.03
2023-03-21T18:55:46.054Z,100340.34
2023-03-21T18:58:49.122Z,100344.91
2023-03-21T19:01:51.105Z,100349.38
2023-03-21T19:04:52.674Z,100349.97
2023-03-21T19:07:54.113Z,100351.91
2023-03-21T19:10:59.576Z,100346.09
2023-03-21T19:14:02.845Z,100344.31
2023-03-21T19:20:25.765Z,100340.16
2023-03-21T19:23:39.911Z,100329.72
2023-03-21T19:26:48.657Z,100344.84
2023-03-21T19:30:06.591Z,100341.63
2023-03-21T19:33:11.534Z,100346.25
2023-03-21T19:36:21.607Z,100336.69
2023-03-21T19:39:24.966Z,100334.97
2023-03-21T19:42:28.646Z,100341.19
2023-03-21T19:45:32.001Z,100342.06
2023-03-21T19:48:33.721Z,100355.47
2023-03-21T19:51:35.582Z,100357.25
2023-03-21T19:54:37.439Z,100362.81
2023-03-21T19:57:38.833Z,100360.69
2023-03-21T20:00:40.493Z,100366.03
2023-03-21T20:03:44.107Z,100353.88
2023-03-21T20:06:45.679Z,100355.81
2023-03-21T20:09:52.571Z,100367.97
2023-03-21T20:12:56.124Z,100365.50
2023-03-21T20:16:03.488Z,100364.06
2023-03-21T20:19:08.663Z,100373.03
2023-03-21T20:22:21.912Z,100366.03
2023-03-21T20:25:29.555Z,100364.38
2023-03-21T20:28:31.104Z,100360.88
2023-03-21T20:31:32.874Z,100361.00
2023-03-21T20:34:36.815Z,100364.69
2023-03-21T20:37:39.622Z,100362.28
2023-03-21T20:40:41.193Z,100362.38
2023-03-21T20:47:05.466Z,100361.19
2023-03-21T20:50:08.735Z,100355.38
2023-03-21T20:53:10.261Z,100357.22
2023-03-21T20:56:11.733Z,100359.38
2023-03-21T20:59:25.653Z,100364.94
2023-03-21T21:02:28.198Z,100370.03
2023-03-21T21:05:34.314Z,100376.31
2023-03-21T21:08:36.392Z,100375.44
2023-03-21T21:14:59.485Z,100358.50
2023-03-21T21:18:06.021Z,100355.19
2023-03-21T21:21:08.978Z,100354.06
2023-03-21T21:24:10.912Z,100348.59
2023-03-21T21:27:16.401Z,100346.81
2023-03-21T21:30:18.492Z,100346.34
2023-03-21T21:33:21.039Z,100355.06
2023-03-21T21:36:22.633Z,100348.41
2023-03-21T21:39:25.139Z,100348.06
2023-03-21T21:42:26.869Z,100342.69
2023-03-21T21:45:28.472Z,100329.97
2023-03-21T21:48:29.974Z,100327.09
2023-03-21T21:51:33.935Z,100327.47
2023-03-21T21:54:35.823Z,100330.25
2023-03-21T21:57:37.425Z,100339.22
2023-03-21T22:00:39.562Z,100344.00
2023-03-21T22:03:41.183Z,100338.38
2023-03-21T22:06:43.114Z,100344.59
2023-03-21T22:09:44.775Z,100348.44
2023-03-21T22:12:46.256Z,100345.09
2023-03-21T22:15:47.861Z,100342.47
2023-03-21T22:18:49.256Z,100350.47
2023-03-21T22:21:51.230Z,100353.44
2023-03-21T22:24:56.127Z,100354.66
2023-03-21T22:27:58.078Z,100363.47
2023-03-21T22:31:07.721Z,100370.66
2023-03-21T22:34:09.446Z,100373.19
2023-03-21T22:37:10.984Z,100367.75
2023-03-21T22:40:15.904Z,100370.19
2023-03-21T22:43:17.296Z,100369.25
2023-03-21T22:46:18.741Z,100369.25
2023-03-21T22:49:20.311Z,100366.69
2023-03-21T22:52:22.839Z,100366.59
2023-03-21T22:55:24.291Z,100357.66
2023-03-21T22:58:25.810Z,100353.22
2023-03-21T23:01:27.485Z,100353.91
2023-03-21T23:04:29.006Z,100352.31
2023-03-21T23:07:30.531Z,100344.19
2023-03-21T23:10:31.940Z,100345.00
2023-03-21T23:13:33.502Z,100332.63
2023-03-21T23:16:38.406Z,100349.19
2023-03-21T23:19:41.158Z,100353.50
2023-03-21T23:22:42.722Z,100352.38
2023-03-21T23:25:45.048Z,100349.53
2023-03-21T23:28:47.973Z,100356.72
2023-03-21T23:31:49.391Z,100356.63
2023-03-21T23:34:50.970Z,100352.88
2023-03-21T23:37:52.750Z,100348.34
2023-03-21T23:40:54.378Z,100338.75
2023-03-21T23:43:55.777Z,100337.09
2023-03-21T23:46:57.238Z,100337.13
2023-03-21T23:49:58.621Z,100337.13
2023-03-21T23:53:00.108Z,100336.44
2023-03-21T23:56:01.603Z,100331.50
2023-03-21T23:59:03.495Z,100328.09
